This is the latest recevied weather packets stored in our database for station/object VE7GEL. If no packets are shown the sender has not sent any weather packets the latest 10 day(s).
| Time | Temp. | Humidity | Pressure | Rain* | Wind** | Luminosity | Snow |
|---|---|---|---|---|---|---|---|
| 1777907702 | 14.44° C | 74% | 1010.6 hPa | 0 mm | - | 19 W/m² | - |
| 1777906887 | 14.44° C | 76% | 1010.3 hPa | 0 mm | - | 18 W/m² | - |
| 1777906803 | 14.44° C | 77% | 1010.5 hPa | 0 mm | - | 18 W/m² | - |
| 1777905987 | 13.89° C | 78% | 1010 hPa | 0 mm | - | 17 W/m² | - |
| 1777905903 | 13.89° C | 78% | 1010.3 hPa | 0 mm | - | 18 W/m² | - |
| 1777905086 | 13.89° C | 81% | 1009.9 hPa | 0 mm | - | 17 W/m² | - |
| 1777905006 | 13.89° C | 81% | 1010.2 hPa | 0 mm | - | 17 W/m² | - |
| 1777904184 | 13.33° C | 83% | 1009.7 hPa | 0 mm | - | 15 W/m² | - |
| 1777904103 | 13.33° C | 83% | 1010 hPa | 0 mm | - | 15 W/m² | - |
| 1777903284 | 13.33° C | 84% | 1009.6 hPa | 0 mm | - | 14 W/m² | - |
| 1777903202 | 13.33° C | 84% | 1009.9 hPa | 0 mm | - | 13 W/m² | - |
| 1777902384 | 13.33° C | 84% | 1009.6 hPa | 0 mm | - | 12 W/m² | - |
| 1777902303 | 13.33° C | 84% | 1009.9 hPa | 0 mm | - | 12 W/m² | - |
| 1777901484 | 12.78° C | 85% | 1009.6 hPa | 0 mm | - | 9 W/m² | - |
| 1777900585 | 12.78° C | 86% | 1009.4 hPa | 0 mm | - | 6 W/m² | - |
| 1777899684 | 12.22° C | 87% | 1009.3 hPa | 0 mm | - | 3 W/m² | - |
| 1777899602 | 12.22° C | 87% | 1009.6 hPa | 0 mm | - | 3 W/m² | - |
| 1777898783 | 12.22° C | 87% | 1009.3 hPa | 0 mm | - | 0 W/m² | - |
| 1777897880 | 12.22° C | 88% | 1009.3 hPa | 0 mm | - | 0 W/m² | - |
| 1777896981 | 12.22° C | 88% | 1009.2 hPa | 0 mm | - | 0 W/m² | - |
| 1777896902 | 12.22° C | 88% | 1009.5 hPa | 0 mm | - | 0 W/m² | - |
| 1777896079 | 12.78° C | 85% | 1009.2 hPa | 0 mm | - | 0 W/m² | - |
| 1777895179 | 13.89° C | 80% | 1009.1 hPa | 0 mm | - | 0 W/m² | - |
| 1777894278 | 14.44° C | 76% | 1009.1 hPa | 0 mm | - | 0 W/m² | - |
| 1777894202 | 14.44° C | 75% | 1009.4 hPa | 0 mm | - | 0 W/m² | - |
* Rain latest hour (hover to see other rain measurements)
** Current wind speed in m/s (hover to see current wind gust speed)